createdAt,value
2019-03-23T00:00:31.694Z,45
2019-03-23T00:01:43.089Z,45
2019-03-23T00:02:56.083Z,45
2019-03-23T00:04:08.276Z,45
2019-03-23T00:05:20.471Z,45
2019-03-23T00:06:32.667Z,45
2019-03-23T00:07:44.860Z,45
2019-03-23T00:08:57.052Z,44.9
2019-03-23T00:10:09.243Z,45
2019-03-23T00:11:21.442Z,44.9
2019-03-23T00:12:33.641Z,45
2019-03-23T00:13:45.825Z,44.9
2019-03-23T00:14:58.017Z,45
2019-03-23T00:16:10.219Z,45
2019-03-23T00:17:22.416Z,45
2019-03-23T00:19:46.795Z,44.9
2019-03-23T00:20:58.996Z,45
2019-03-23T00:22:11.189Z,45
2019-03-23T00:23:23.375Z,45
2019-03-23T00:24:35.057Z,44.9
2019-03-23T00:25:47.007Z,44.9
2019-03-23T00:26:59.964Z,44.9
2019-03-23T00:28:12.153Z,44.9
2019-03-23T00:29:24.354Z,44.9
2019-03-23T00:30:36.543Z,45
2019-03-23T00:31:48.873Z,44.9
2019-03-23T00:33:01.076Z,44.9
2019-03-23T00:34:13.266Z,44.9
2019-03-23T00:35:25.046Z,44.9
2019-03-23T00:36:37.656Z,44.9
2019-03-23T00:37:49.084Z,45
2019-03-23T00:39:02.046Z,44.9
2019-03-23T00:40:14.269Z,44.9
2019-03-23T00:41:26.433Z,44.9
2019-03-23T00:42:38.625Z,44.9
2019-03-23T00:43:50.820Z,44.9
2019-03-23T00:45:03.013Z,44.9
2019-03-23T00:46:15.207Z,44.9
2019-03-23T00:47:27.399Z,44.9
2019-03-23T00:48:39.589Z,44.9
2019-03-23T00:49:51.784Z,44.9
2019-03-23T00:51:03.979Z,44.9
2019-03-23T00:52:16.177Z,44.9
2019-03-23T00:53:28.036Z,44.9
2019-03-23T00:54:40.566Z,44.9
2019-03-23T00:55:52.751Z,44.9
2019-03-23T00:57:04.947Z,44.9
2019-03-23T00:58:17.140Z,44.9
2019-03-23T00:59:29.340Z,44.9
2019-03-23T01:00:41.528Z,44.9
2019-03-23T01:01:53.726Z,44.9
2019-03-23T01:03:05.091Z,44.9
2019-03-23T01:04:18.112Z,44.9
2019-03-23T01:05:30.309Z,44.9
2019-03-23T01:06:42.000Z,44.9
2019-03-23T01:07:54.701Z,44.9
2019-03-23T01:09:06.883Z,44.9
2019-03-23T01:10:19.079Z,44.9
2019-03-23T01:11:31.307Z,44.9
2019-03-23T01:12:43.467Z,44.9
2019-03-23T01:13:55.658Z,44.9
2019-03-23T01:15:07.850Z,44.9
2019-03-23T01:16:20.000Z,44.9
2019-03-23T01:17:32.023Z,44.9
2019-03-23T01:18:44.441Z,44.9
2019-03-23T01:19:56.640Z,44.9
2019-03-23T01:22:21.018Z,44.8
2019-03-23T01:23:33.224Z,44.9
2019-03-23T01:24:45.409Z,44.8
2019-03-23T01:25:57.611Z,44.9
2019-03-23T01:27:09.804Z,44.9
2019-03-23T01:28:22.000Z,44.9
2019-03-23T01:29:34.194Z,44.9
2019-03-23T01:30:46.391Z,44.8
2019-03-23T01:31:58.580Z,44.8
2019-03-23T01:33:10.774Z,44.8
2019-03-23T01:34:22.973Z,44.8
2019-03-23T01:35:35.172Z,44.8
2019-03-23T01:36:47.363Z,44.8
2019-03-23T01:37:59.554Z,44.8
2019-03-23T01:39:11.752Z,44.8
2019-03-23T01:40:23.947Z,44.8
2019-03-23T01:41:36.145Z,44.8
2019-03-23T01:42:48.340Z,44.9
2019-03-23T01:44:00.000Z,44.8
2019-03-23T01:45:12.732Z,44.9
2019-03-23T01:46:24.993Z,44.9
2019-03-23T01:47:37.115Z,44.8
2019-03-23T01:48:49.311Z,44.8
2019-03-23T01:50:01.521Z,44.8
2019-03-23T01:51:13.703Z,44.8
2019-03-23T01:52:25.896Z,44.8
2019-03-23T01:53:38.095Z,44.8
2019-03-23T01:54:50.286Z,44.8
2019-03-23T01:56:02.483Z,44.8
2019-03-23T01:57:14.685Z,44.8
2019-03-23T01:58:26.000Z,44.8
2019-03-23T01:59:39.007Z,44.8
2019-03-23T02:00:51.266Z,44.8
2019-03-23T02:02:03.465Z,44.8
2019-03-23T02:03:15.663Z,44.9
2019-03-23T02:04:27.848Z,44.8
2019-03-23T02:05:40.046Z,44.8
2019-03-23T02:08:04.440Z,44.8
2019-03-23T02:09:16.637Z,44.8
2019-03-23T02:10:28.865Z,44.8
2019-03-23T02:11:41.019Z,44.8
2019-03-23T02:12:53.000Z,44.8
2019-03-23T02:14:05.444Z,44.8
2019-03-23T02:15:17.609Z,44.8
2019-03-23T02:16:29.805Z,44.8
2019-03-23T02:17:42.000Z,44.8
2019-03-23T02:18:54.194Z,44.8
2019-03-23T02:20:06.038Z,44.8
2019-03-23T02:22:30.781Z,44.8
2019-03-23T02:23:42.980Z,44.8
2019-03-23T02:24:55.172Z,44.8
2019-03-23T02:26:07.373Z,44.8
2019-03-23T02:27:19.569Z,44.8
2019-03-23T02:28:31.767Z,44.7
2019-03-23T02:29:43.952Z,44.7
2019-03-23T02:30:56.153Z,44.8
2019-03-23T02:32:08.351Z,44.8
2019-03-23T02:33:20.543Z,44.8
2019-03-23T02:34:32.731Z,44.8
2019-03-23T02:35:44.934Z,44.8
2019-03-23T02:36:57.127Z,44.7
2019-03-23T02:38:09.319Z,44.7
2019-03-23T02:39:21.528Z,44.8
2019-03-23T02:40:33.071Z,44.7
2019-03-23T02:41:45.911Z,44.7
2019-03-23T02:42:58.100Z,44.8
2019-03-23T02:44:10.303Z,44.8
2019-03-23T02:45:22.487Z,44.8
2019-03-23T02:46:34.692Z,44.8
2019-03-23T02:47:46.880Z,44.8
2019-03-23T02:48:59.079Z,44.8
2019-03-23T02:50:11.274Z,44.8
2019-03-23T02:51:23.472Z,44.8
2019-03-23T02:52:35.662Z,44.8
2019-03-23T02:53:47.864Z,44.8
2019-03-23T02:55:00.059Z,44.8
2019-03-23T02:56:12.254Z,44.8
2019-03-23T02:57:24.446Z,44.8
2019-03-23T02:58:36.637Z,44.7
2019-03-23T02:59:48.834Z,44.8
2019-03-23T03:01:01.036Z,44.8
2019-03-23T03:02:13.221Z,44.7
2019-03-23T03:03:25.424Z,44.7
2019-03-23T03:04:37.615Z,44.8
2019-03-23T03:07:02.004Z,44.7
2019-03-23T03:08:14.202Z,44.7
2019-03-23T03:10:38.596Z,44.7
2019-03-23T03:11:50.796Z,44.7
2019-03-23T03:13:02.987Z,44.7
2019-03-23T03:14:15.019Z,44.7
2019-03-23T03:15:27.376Z,44.7
2019-03-23T03:16:39.567Z,44.7
2019-03-23T03:17:51.771Z,44.7
2019-03-23T03:19:03.962Z,44.7
2019-03-23T03:20:16.160Z,44.7
2019-03-23T03:21:28.352Z,44.7
2019-03-23T03:22:40.545Z,44.7
2019-03-23T03:23:52.746Z,44.8
2019-03-23T03:25:04.935Z,44.7
2019-03-23T03:26:17.135Z,44.7
2019-03-23T03:27:29.327Z,44.8
2019-03-23T03:28:41.052Z,44.8
2019-03-23T03:29:53.072Z,44.7
2019-03-23T03:31:05.917Z,44.7
2019-03-23T03:32:18.105Z,44.7
2019-03-23T03:34:42.498Z,44.7
2019-03-23T03:35:54.694Z,44.7
2019-03-23T03:37:06.905Z,44.7
2019-03-23T03:38:19.089Z,44.6
2019-03-23T03:39:31.295Z,44.6
2019-03-23T03:40:43.484Z,44.6
2019-03-23T03:41:55.681Z,44.6
2019-03-23T03:43:07.876Z,44.7
2019-03-23T03:44:20.063Z,44.7
2019-03-23T03:46:44.451Z,44.7
2019-03-23T03:47:56.065Z,44.6
2019-03-23T03:49:08.838Z,44.7
2019-03-23T03:50:21.045Z,44.7
2019-03-23T03:51:33.236Z,44.6
2019-03-23T03:52:45.427Z,44.7
2019-03-23T03:53:57.629Z,44.6
2019-03-23T03:55:09.816Z,44.7
2019-03-23T03:56:22.023Z,44.7
2019-03-23T03:57:34.208Z,44.7
2019-03-23T03:58:46.402Z,44.6
2019-03-23T03:59:58.607Z,44.7
2019-03-23T04:01:10.080Z,44.7
2019-03-23T04:02:22.994Z,44.7
2019-03-23T04:03:35.187Z,44.6
2019-03-23T04:04:47.387Z,44.7
2019-03-23T04:05:59.057Z,44.6
2019-03-23T04:07:11.770Z,44.7
2019-03-23T04:08:23.967Z,44.6
2019-03-23T04:09:36.167Z,44.6
2019-03-23T04:10:48.362Z,44.6
2019-03-23T04:12:00.552Z,44.6
2019-03-23T04:13:12.747Z,44.6
2019-03-23T04:14:24.941Z,44.6
2019-03-23T04:15:37.146Z,44.6
2019-03-23T04:16:49.033Z,44.6
2019-03-23T04:18:01.533Z,44.6
2019-03-23T04:19:13.729Z,44.6
2019-03-23T04:20:25.921Z,44.6
2019-03-23T04:21:38.113Z,44.6
2019-03-23T04:22:50.310Z,44.6
2019-03-23T04:24:02.511Z,44.7
2019-03-23T04:25:14.703Z,44.7
2019-03-23T04:26:26.895Z,44.7
2019-03-23T04:27:39.094Z,44.7
2019-03-23T04:28:51.288Z,44.6
2019-03-23T04:30:03.485Z,44.6
2019-03-23T04:31:15.730Z,44.6
2019-03-23T04:32:27.876Z,44.6
2019-03-23T04:33:40.076Z,44.6
2019-03-23T04:34:52.026Z,44.6
2019-03-23T04:36:04.461Z,44.6
2019-03-23T04:37:16.660Z,44.6
2019-03-23T04:38:28.846Z,44.6
2019-03-23T04:39:41.064Z,44.7
2019-03-23T04:40:53.244Z,44.7
2019-03-23T04:42:05.435Z,44.6
2019-03-23T04:43:17.632Z,44.6
2019-03-23T04:44:29.831Z,44.7
2019-03-23T04:45:42.027Z,44.7
2019-03-23T04:48:06.415Z,44.6
2019-03-23T04:49:18.608Z,44.6
2019-03-23T04:50:30.806Z,44.6
2019-03-23T04:51:43.003Z,44.6
2019-03-23T04:52:55.189Z,44.6
2019-03-23T04:54:07.396Z,44.6
2019-03-23T04:55:19.590Z,44.6
2019-03-23T04:56:31.784Z,44.5
2019-03-23T04:58:56.168Z,44.5
2019-03-23T05:00:08.363Z,44.6
2019-03-23T05:01:20.566Z,44.5
2019-03-23T05:02:32.790Z,44.5
2019-03-23T05:03:44.954Z,44.6
2019-03-23T05:04:57.143Z,44.5
2019-03-23T05:06:09.369Z,44.5
2019-03-23T05:07:21.539Z,44.6
2019-03-23T05:08:33.739Z,44.6
2019-03-23T05:10:58.120Z,44.5
2019-03-23T05:12:10.321Z,44.5
2019-03-23T05:13:22.516Z,44.5
2019-03-23T05:14:34.711Z,44.5
2019-03-23T05:15:46.905Z,44.5
2019-03-23T05:16:59.099Z,44.5
2019-03-23T05:18:11.294Z,44.5
2019-03-23T05:19:23.049Z,44.4
2019-03-23T05:20:35.689Z,44.4
2019-03-23T05:23:00.080Z,44.6
2019-03-23T05:24:12.271Z,44.5
2019-03-23T05:25:24.466Z,44.5
2019-03-23T05:26:36.660Z,44.4
2019-03-23T05:27:48.859Z,44.5
2019-03-23T05:29:01.006Z,44.5
2019-03-23T05:30:13.256Z,44.5
2019-03-23T05:31:25.044Z,44.5
2019-03-23T05:32:37.640Z,44.5
2019-03-23T05:33:49.845Z,44.5
2019-03-23T05:35:02.032Z,44.4
2019-03-23T05:36:14.228Z,44.5
2019-03-23T05:37:26.417Z,44.4
2019-03-23T05:38:38.614Z,44.4
2019-03-23T05:39:50.081Z,44.5
2019-03-23T05:41:03.009Z,44.4
2019-03-23T05:42:15.202Z,44.4
2019-03-23T05:43:27.401Z,44.4
2019-03-23T05:44:39.060Z,44.4
2019-03-23T05:45:51.786Z,44.4
2019-03-23T05:47:03.984Z,44.4
2019-03-23T05:48:16.176Z,44.4
2019-03-23T05:49:28.371Z,44.4
2019-03-23T05:50:40.570Z,44.4
2019-03-23T05:51:52.777Z,44.4
2019-03-23T05:53:04.979Z,44.4
2019-03-23T05:54:17.217Z,44.4
2019-03-23T05:55:29.352Z,44.4
2019-03-23T05:56:41.551Z,44.4
2019-03-23T05:57:53.751Z,44.4
2019-03-23T05:59:05.945Z,44.4
2019-03-23T06:00:18.013Z,44.3
2019-03-23T06:01:30.341Z,44.3
2019-03-23T06:02:42.537Z,44.3
2019-03-23T06:03:54.738Z,44.3
2019-03-23T06:05:06.916Z,44.3
2019-03-23T06:06:19.113Z,44.3
2019-03-23T06:07:31.321Z,44.3
2019-03-23T06:08:43.517Z,44.3
2019-03-23T06:09:55.706Z,44.2
2019-03-23T06:11:07.900Z,44.3
2019-03-23T06:12:20.093Z,44.3
2019-03-23T06:13:32.295Z,44.3
2019-03-23T06:14:44.048Z,44.2
2019-03-23T06:15:56.678Z,44.3
2019-03-23T06:17:08.879Z,44.3
2019-03-23T06:18:21.072Z,44.3
2019-03-23T06:19:33.268Z,44.2
2019-03-23T06:20:45.460Z,44.2
2019-03-23T06:21:57.671Z,44.2
2019-03-23T06:23:09.865Z,44.2
2019-03-23T06:24:22.049Z,44.2
2019-03-23T06:25:34.241Z,44.2
2019-03-23T06:26:46.444Z,44.2
2019-03-23T06:27:58.637Z,44.2
2019-03-23T06:29:10.831Z,44.2
2019-03-23T06:30:23.038Z,44.2
2019-03-23T06:31:35.022Z,44.2
2019-03-23T06:32:47.042Z,44.2
2019-03-23T06:33:59.610Z,44.2
2019-03-23T06:35:11.081Z,44.2
2019-03-23T06:36:24.004Z,44.2
2019-03-23T06:37:36.205Z,44.2
2019-03-23T06:38:48.039Z,44.2
2019-03-23T06:40:00.590Z,44.2
2019-03-23T06:41:12.784Z,44.2
2019-03-23T06:42:24.098Z,44.1
2019-03-23T06:43:37.181Z,44.1
2019-03-23T06:44:49.387Z,44.1
2019-03-23T06:46:01.569Z,44.1
2019-03-23T06:47:13.766Z,44.1
2019-03-23T06:48:25.096Z,44.1
2019-03-23T06:49:38.016Z,44.1
2019-03-23T06:50:50.353Z,44.1
2019-03-23T06:52:02.552Z,44.1
2019-03-23T06:53:14.745Z,44.1
2019-03-23T06:54:26.935Z,44.1
2019-03-23T06:55:39.135Z,44.1
2019-03-23T06:59:15.723Z,44.1
2019-03-23T07:00:27.916Z,44.1
2019-03-23T07:01:40.011Z,44.1
2019-03-23T07:02:52.311Z,44.1
2019-03-23T07:05:16.703Z,44.1
2019-03-23T07:06:28.891Z,44.1
2019-03-23T07:07:41.009Z,44.1
2019-03-23T07:08:53.287Z,44
2019-03-23T07:10:05.484Z,44.1
2019-03-23T07:11:17.678Z,44
2019-03-23T07:12:29.882Z,44.1
2019-03-23T07:13:42.071Z,44
2019-03-23T07:14:54.000Z,44
2019-03-23T07:16:06.460Z,44.1
2019-03-23T07:17:18.663Z,44
2019-03-23T07:18:30.852Z,44.1
2019-03-23T07:19:43.053Z,44
2019-03-23T07:20:55.244Z,44
2019-03-23T07:22:07.442Z,44
2019-03-23T07:23:19.000Z,44.1
2019-03-23T07:24:31.830Z,44.1
2019-03-23T07:25:44.028Z,44
2019-03-23T07:26:56.231Z,44
2019-03-23T07:28:08.416Z,44
2019-03-23T07:29:20.619Z,44.1
2019-03-23T07:30:32.817Z,44
2019-03-23T07:31:45.007Z,44.1
2019-03-23T07:32:57.021Z,44
2019-03-23T07:35:21.618Z,44
2019-03-23T07:36:33.785Z,44
2019-03-23T07:37:45.991Z,44
2019-03-23T07:38:58.182Z,44
2019-03-23T07:40:10.375Z,43.9
2019-03-23T07:41:22.572Z,44
2019-03-23T07:42:34.767Z,43.9
2019-03-23T07:43:46.977Z,43.9
2019-03-23T07:44:59.015Z,43.9
2019-03-23T07:46:11.351Z,44
2019-03-23T07:47:23.553Z,44
2019-03-23T07:48:35.075Z,43.9
2019-03-23T07:49:47.945Z,43.9
2019-03-23T07:51:00.140Z,43.9
2019-03-23T07:52:12.333Z,44
2019-03-23T07:53:24.529Z,43.9
2019-03-23T07:54:36.727Z,44
2019-03-23T07:55:48.927Z,43.9
2019-03-23T07:57:01.124Z,43.9
2019-03-23T07:59:25.506Z,43.9
2019-03-23T08:00:37.706Z,43.9
2019-03-23T08:01:49.898Z,43.9
2019-03-23T08:03:02.099Z,43.9
2019-03-23T08:04:14.291Z,43.9
2019-03-23T08:05:26.483Z,43.9
2019-03-23T08:06:38.682Z,43.9
2019-03-23T08:07:50.088Z,43.9
2019-03-23T08:09:03.080Z,43.9
2019-03-23T08:10:15.264Z,43.9
2019-03-23T08:11:27.459Z,43.9
2019-03-23T08:12:39.666Z,43.9
2019-03-23T08:13:51.853Z,43.9
2019-03-23T08:15:04.049Z,43.8
2019-03-23T08:16:16.240Z,43.9
2019-03-23T08:17:28.436Z,43.9
2019-03-23T08:18:40.656Z,43.9
2019-03-23T08:19:52.829Z,43.9
2019-03-23T08:21:05.023Z,43.9
2019-03-23T08:23:29.042Z,43.8
2019-03-23T08:24:41.618Z,43.9
2019-03-23T08:25:53.809Z,43.9
2019-03-23T08:27:06.000Z,43.8
2019-03-23T08:28:18.200Z,43.8
2019-03-23T08:29:30.402Z,43.8
2019-03-23T08:30:42.597Z,43.8
2019-03-23T08:31:54.791Z,43.8
2019-03-23T08:33:06.980Z,43.8
2019-03-23T08:34:19.179Z,43.8
2019-03-23T08:35:31.379Z,43.8
2019-03-23T08:36:43.057Z,43.9
2019-03-23T08:37:55.786Z,43.8
2019-03-23T08:39:07.963Z,43.8
2019-03-23T08:40:20.172Z,43.8
2019-03-23T08:41:32.361Z,43.8
2019-03-23T08:42:44.550Z,43.8
2019-03-23T08:43:56.741Z,43.8
2019-03-23T08:45:08.946Z,43.8
2019-03-23T08:46:21.139Z,43.8
2019-03-23T08:47:33.337Z,43.8
2019-03-23T08:48:45.005Z,43.8
2019-03-23T08:49:57.913Z,43.8
2019-03-23T08:51:09.921Z,43.8
2019-03-23T08:52:22.115Z,43.8
2019-03-23T08:53:34.312Z,43.8
2019-03-23T08:54:46.514Z,43.8
2019-03-23T08:55:58.700Z,43.8
2019-03-23T08:57:10.896Z,43.8
2019-03-23T08:58:23.102Z,43.7
2019-03-23T08:59:35.286Z,43.7
2019-03-23T09:00:47.048Z,43.7
2019-03-23T09:01:59.067Z,43.8
2019-03-23T09:03:11.873Z,43.7
2019-03-23T09:04:24.076Z,43.8
2019-03-23T09:05:36.274Z,43.8
2019-03-23T09:06:48.456Z,43.7
2019-03-23T09:08:00.658Z,43.7
2019-03-23T09:09:12.085Z,43.7
2019-03-23T09:10:25.047Z,43.7
2019-03-23T09:11:37.245Z,43.7
2019-03-23T09:12:49.435Z,43.7
2019-03-23T09:14:01.637Z,43.8
2019-03-23T09:15:13.831Z,43.7
2019-03-23T09:16:26.030Z,43.7
2019-03-23T09:17:38.224Z,43.7
2019-03-23T09:18:50.422Z,43.7
2019-03-23T09:20:02.609Z,43.7
2019-03-23T09:21:14.802Z,43.7
2019-03-23T09:22:26.999Z,43.7
2019-03-23T09:23:39.196Z,43.7
2019-03-23T09:24:51.401Z,43.7
2019-03-23T09:26:03.592Z,43.7
2019-03-23T09:27:15.078Z,43.7
2019-03-23T09:28:27.975Z,43.7
2019-03-23T09:29:40.181Z,43.7
2019-03-23T09:30:52.377Z,43.7
2019-03-23T09:32:04.565Z,43.7
2019-03-23T09:33:16.766Z,43.7
2019-03-23T09:34:28.954Z,43.7
2019-03-23T09:35:41.161Z,43.7
2019-03-23T09:36:53.428Z,43.7
2019-03-23T09:38:05.554Z,43.7
2019-03-23T09:39:17.073Z,43.8
2019-03-23T09:40:29.942Z,43.7
2019-03-23T09:41:42.132Z,43.7
2019-03-23T09:42:54.331Z,43.7
2019-03-23T09:44:06.525Z,43.6
2019-03-23T09:45:18.722Z,43.7
2019-03-23T09:47:43.112Z,43.6
2019-03-23T09:48:55.304Z,43.7
2019-03-23T09:50:07.502Z,43.6
2019-03-23T09:51:19.069Z,43.6
2019-03-23T09:52:31.909Z,43.7
2019-03-23T09:53:44.089Z,43.6
2019-03-23T09:54:56.284Z,43.6
2019-03-23T09:56:08.047Z,43.6
2019-03-23T09:57:20.670Z,43.6
2019-03-23T09:58:32.087Z,43.6
2019-03-23T09:59:45.089Z,43.6
2019-03-23T10:00:57.257Z,43.7
2019-03-23T10:02:09.461Z,43.6
2019-03-23T10:03:21.652Z,43.6
2019-03-23T10:04:33.843Z,43.6
2019-03-23T10:05:46.005Z,43.6
2019-03-23T10:06:58.237Z,43.6
2019-03-23T10:08:10.438Z,43.7
2019-03-23T10:09:22.646Z,43.6
2019-03-23T10:10:34.820Z,43.6
2019-03-23T10:11:47.002Z,43.6
2019-03-23T10:12:59.218Z,43.6
2019-03-23T10:14:11.423Z,43.6
2019-03-23T10:15:23.601Z,43.6
2019-03-23T10:16:35.079Z,43.6
2019-03-23T10:17:48.001Z,43.6
2019-03-23T10:20:12.391Z,43.6
2019-03-23T10:21:24.584Z,43.6
2019-03-23T10:22:36.782Z,43.6
2019-03-23T10:23:48.979Z,43.6
2019-03-23T10:25:01.174Z,43.6
2019-03-23T10:26:13.364Z,43.6
2019-03-23T10:27:25.000Z,43.6
2019-03-23T10:28:37.758Z,43.7
2019-03-23T10:29:49.950Z,43.7
2019-03-23T10:31:02.155Z,43.6
2019-03-23T10:32:14.033Z,43.6
2019-03-23T10:33:26.546Z,43.6
2019-03-23T10:34:38.740Z,43.7
2019-03-23T10:35:50.934Z,43.6
2019-03-23T10:37:03.013Z,43.7
2019-03-23T10:38:15.324Z,43.7
2019-03-23T10:39:27.529Z,43.7
2019-03-23T10:40:39.716Z,43.7
2019-03-23T10:41:51.916Z,43.7
2019-03-23T10:43:04.112Z,43.7
2019-03-23T10:44:16.300Z,43.7
2019-03-23T10:45:28.503Z,43.6
2019-03-23T10:46:40.693Z,43.7
2019-03-23T10:47:52.885Z,43.7
2019-03-23T10:49:05.007Z,43.7
2019-03-23T10:50:17.271Z,43.7
2019-03-23T10:51:29.471Z,43.6
2019-03-23T10:52:41.664Z,43.7
2019-03-23T10:53:53.854Z,43.7
2019-03-23T10:55:06.046Z,43.6
2019-03-23T10:56:18.244Z,43.7
2019-03-23T10:57:30.437Z,43.7
2019-03-23T10:59:54.872Z,43.7
2019-03-23T11:01:07.018Z,43.6
2019-03-23T11:02:19.213Z,43.6
2019-03-23T11:03:31.004Z,43.6
2019-03-23T11:04:43.616Z,43.6
2019-03-23T11:05:55.792Z,43.6
2019-03-23T11:07:07.986Z,43.6
2019-03-23T11:08:20.176Z,43.6
2019-03-23T11:09:32.380Z,43.6
2019-03-23T11:11:56.075Z,43.6
2019-03-23T11:13:08.957Z,43.6
2019-03-23T11:14:21.014Z,43.6
2019-03-23T11:15:33.338Z,43.6
2019-03-23T11:17:57.731Z,43.6
2019-03-23T11:19:09.922Z,43.6
2019-03-23T11:20:22.118Z,43.6
2019-03-23T11:21:34.030Z,43.6
2019-03-23T11:22:46.500Z,43.6
2019-03-23T11:23:58.070Z,43.6
2019-03-23T11:25:10.890Z,43.6
2019-03-23T11:26:23.087Z,43.6
2019-03-23T11:27:35.283Z,43.6
2019-03-23T11:28:47.474Z,43.6
2019-03-23T11:29:59.664Z,43.6
2019-03-23T11:31:11.869Z,43.6
2019-03-23T11:32:24.051Z,43.6
2019-03-23T11:33:36.242Z,43.6
2019-03-23T11:34:48.442Z,43.6
2019-03-23T11:36:00.632Z,43.6
2019-03-23T11:37:12.827Z,43.6
2019-03-23T11:39:37.021Z,43.6
2019-03-23T11:40:49.407Z,43.6
2019-03-23T11:42:01.605Z,43.5
2019-03-23T11:43:13.792Z,43.6
2019-03-23T11:44:25.985Z,43.6
2019-03-23T11:45:38.187Z,43.5
2019-03-23T11:48:02.572Z,43.6
2019-03-23T11:49:14.769Z,43.6
2019-03-23T11:50:26.965Z,43.5
2019-03-23T11:51:39.149Z,43.6
2019-03-23T11:52:51.348Z,43.6
2019-03-23T11:54:03.541Z,43.5
2019-03-23T11:55:15.737Z,43.6
2019-03-23T11:56:27.923Z,43.6
2019-03-23T11:57:40.137Z,43.6
2019-03-23T12:00:04.506Z,43.6
2019-03-23T12:01:16.705Z,43.5
2019-03-23T12:02:28.898Z,43.6
2019-03-23T12:03:41.089Z,43.6
2019-03-23T12:04:53.280Z,43.6
2019-03-23T12:06:05.480Z,43.6
2019-03-23T12:07:17.673Z,43.6
2019-03-23T12:08:29.866Z,43.6
2019-03-23T12:09:42.056Z,43.5
2019-03-23T12:10:54.027Z,43.5
2019-03-23T12:12:06.441Z,43.5
2019-03-23T12:13:18.637Z,43.5
2019-03-23T12:14:30.084Z,43.5
2019-03-23T12:15:43.022Z,43.5
2019-03-23T12:16:55.241Z,43.5
2019-03-23T12:18:07.041Z,43.5
2019-03-23T12:19:19.609Z,43.4
2019-03-23T12:20:31.813Z,43.4
2019-03-23T12:21:44.001Z,43.4
2019-03-23T12:24:08.390Z,43.4
2019-03-23T12:25:20.581Z,43.4
2019-03-23T12:26:32.077Z,43.4
2019-03-23T12:27:44.963Z,43.4
2019-03-23T12:28:57.155Z,43.4
2019-03-23T12:30:09.358Z,43.4
2019-03-23T12:31:21.547Z,43.4
2019-03-23T12:32:33.736Z,43.4
2019-03-23T12:33:45.930Z,43.3
2019-03-23T12:34:58.147Z,43.4
2019-03-23T12:36:10.320Z,43.3
2019-03-23T12:37:22.519Z,43.3
2019-03-23T12:38:34.710Z,43.3
2019-03-23T12:39:46.899Z,43.3
2019-03-23T12:40:59.009Z,43.3
2019-03-23T12:42:11.292Z,43.3
2019-03-23T12:44:35.673Z,43.1
2019-03-23T12:45:47.870Z,43.1
2019-03-23T12:47:00.064Z,43.1
2019-03-23T12:48:12.267Z,43.1
2019-03-23T12:49:24.451Z,43.1
2019-03-23T12:50:36.652Z,43.1
2019-03-23T12:51:48.878Z,43.3
2019-03-23T12:53:01.032Z,43.3
2019-03-23T12:54:13.227Z,43.3
2019-03-23T12:55:25.417Z,43.3
2019-03-23T12:56:37.617Z,43.3
2019-03-23T12:57:49.080Z,43.3
2019-03-23T12:59:01.999Z,43.3
2019-03-23T13:00:15.032Z,43.4
2019-03-23T13:01:26.391Z,43.4
2019-03-23T13:02:38.604Z,43.4
2019-03-23T13:03:50.785Z,43.4
2019-03-23T13:05:02.977Z,43.4
2019-03-23T13:06:15.000Z,43.3
2019-03-23T13:07:27.035Z,43.3
2019-03-23T13:08:39.548Z,43.3
2019-03-23T13:09:51.772Z,43.4
2019-03-23T13:11:03.937Z,43.3
2019-03-23T13:12:16.138Z,43.3
2019-03-23T13:13:28.325Z,43.3
2019-03-23T13:14:40.517Z,43.3
2019-03-23T13:15:52.717Z,43.3
2019-03-23T13:17:05.005Z,43.2
2019-03-23T13:18:17.106Z,43.1
2019-03-23T13:20:41.486Z,43
2019-03-23T13:21:53.068Z,43
2019-03-23T13:23:05.879Z,43
2019-03-23T13:24:18.074Z,43
2019-03-23T13:25:30.027Z,43
2019-03-23T13:26:42.463Z,43
2019-03-23T13:27:54.655Z,42.9
2019-03-23T13:29:06.842Z,42.9
2019-03-23T13:30:19.040Z,42.9
2019-03-23T13:31:31.235Z,42.8
2019-03-23T13:32:43.429Z,42.8
2019-03-23T13:33:55.619Z,42.8
2019-03-23T13:36:20.013Z,42.6
2019-03-23T13:37:32.202Z,42.6
2019-03-23T13:38:44.396Z,42.5
2019-03-23T13:39:56.584Z,42.5
2019-03-23T13:41:08.783Z,42.5
2019-03-23T13:42:20.976Z,42.5
2019-03-23T13:43:33.168Z,42.5
2019-03-23T13:44:45.363Z,42.4
2019-03-23T13:45:57.567Z,42.4
2019-03-23T13:47:09.750Z,42.4
2019-03-23T13:48:21.945Z,42.3
2019-03-23T13:49:34.135Z,42.3
2019-03-23T13:50:46.326Z,42.3
2019-03-23T13:51:58.533Z,42.2
2019-03-23T13:53:10.718Z,42.1
2019-03-23T13:54:22.000Z,42.1
2019-03-23T13:55:35.104Z,42.1
2019-03-23T13:56:47.305Z,42.1
2019-03-23T13:57:59.503Z,42
2019-03-23T13:59:11.692Z,42
2019-03-23T14:00:23.881Z,41.9
2019-03-23T14:01:36.073Z,41.9
2019-03-23T14:02:48.272Z,41.8
2019-03-23T14:04:00.462Z,41.8
2019-03-23T14:05:12.066Z,41.7
2019-03-23T14:06:24.846Z,41.6
2019-03-23T14:07:37.042Z,41.5
2019-03-23T14:08:49.249Z,41.5
2019-03-23T14:11:13.628Z,41.2
2019-03-23T14:12:25.821Z,40.9
2019-03-23T14:13:38.006Z,40.3
2019-03-23T14:14:50.207Z,39.7
2019-03-23T14:16:02.402Z,39
2019-03-23T14:17:14.594Z,38.1
2019-03-23T14:18:26.791Z,37.4
2019-03-23T14:19:38.981Z,36.9
2019-03-23T14:20:51.178Z,36.6
2019-03-23T14:22:03.365Z,36.8
2019-03-23T14:23:15.588Z,36.6
2019-03-23T14:24:27.771Z,36.4
2019-03-23T14:25:39.945Z,36.2
2019-03-23T14:26:52.140Z,36.3
2019-03-23T14:28:04.330Z,36.5
2019-03-23T14:29:16.527Z,36.7
2019-03-23T14:30:28.724Z,37.1
2019-03-23T14:31:40.911Z,37.5
2019-03-23T14:32:53.104Z,37.8
2019-03-23T14:34:05.030Z,38.2
2019-03-23T14:35:17.050Z,38.4
2019-03-23T14:36:29.709Z,38.4
2019-03-23T14:37:41.876Z,38.2
2019-03-23T14:38:54.072Z,37.8
2019-03-23T14:40:06.263Z,37.4
2019-03-23T14:41:18.464Z,36.8
2019-03-23T14:42:30.651Z,36.2
2019-03-23T14:43:42.850Z,35.5
2019-03-23T14:44:55.047Z,35.4
2019-03-23T14:46:07.238Z,35.1
2019-03-23T14:47:19.430Z,35
2019-03-23T14:48:31.623Z,34.7
2019-03-23T14:49:43.827Z,34.9
2019-03-23T14:50:56.013Z,35.4
2019-03-23T14:52:08.021Z,35.6
2019-03-23T14:53:20.402Z,35.8
2019-03-23T14:54:32.588Z,36
2019-03-23T14:55:44.784Z,36.2
2019-03-23T14:56:56.977Z,36.5
2019-03-23T14:58:09.174Z,36.8
2019-03-23T15:01:45.753Z,38
2019-03-23T15:02:57.946Z,38.2
2019-03-23T15:04:10.137Z,38.5
2019-03-23T15:05:22.325Z,38.7
2019-03-23T15:06:34.522Z,38.9
2019-03-23T15:07:46.745Z,39.1
2019-03-23T15:08:58.908Z,39.2
2019-03-23T15:10:11.100Z,39.4
2019-03-23T15:11:23.295Z,39.5
2019-03-23T15:12:35.497Z,39.6
2019-03-23T15:13:47.691Z,39.8
2019-03-23T15:14:59.941Z,39.9
2019-03-23T15:16:12.007Z,40
2019-03-23T15:17:24.295Z,40
2019-03-23T15:18:36.460Z,40.1
2019-03-23T15:19:48.006Z,40.1
2019-03-23T15:21:00.848Z,40.3
2019-03-23T15:22:13.050Z,40.3
2019-03-23T15:23:25.237Z,40.1
2019-03-23T15:24:37.431Z,40.3
2019-03-23T15:25:49.618Z,40.3
2019-03-23T15:27:01.832Z,40.3
2019-03-23T15:28:14.008Z,40.3
2019-03-23T15:29:26.020Z,40.3
2019-03-23T15:30:38.396Z,40.4
2019-03-23T15:31:50.583Z,40.5
2019-03-23T15:33:02.782Z,40.5
2019-03-23T15:34:14.971Z,40.6
2019-03-23T15:35:27.167Z,40.6
2019-03-23T15:36:39.364Z,40.7
2019-03-23T15:37:51.055Z,40.7
2019-03-23T15:39:03.749Z,40.7
2019-03-23T15:40:15.094Z,40.9
2019-03-23T15:41:28.138Z,40.9
2019-03-23T15:42:40.334Z,41
2019-03-23T15:43:52.537Z,41.1
2019-03-23T15:45:04.715Z,41.2
2019-03-23T15:46:16.912Z,41.2
2019-03-23T15:48:41.290Z,41.3
2019-03-23T15:49:53.485Z,41.4
2019-03-23T15:51:05.068Z,41.4
2019-03-23T15:52:17.873Z,41.5
2019-03-23T15:53:30.079Z,41.5
2019-03-23T15:54:42.259Z,41.5
2019-03-23T15:55:54.453Z,41.5
2019-03-23T15:57:06.653Z,41.4
2019-03-23T15:58:18.841Z,41.5
2019-03-23T16:00:43.239Z,41.5
2019-03-23T16:01:55.421Z,41.5
2019-03-23T16:03:07.614Z,41.6
2019-03-23T16:04:19.808Z,41.7
2019-03-23T16:06:44.203Z,41.6
2019-03-23T16:07:56.389Z,41.6
2019-03-23T16:10:20.781Z,41.7
2019-03-23T16:11:32.974Z,41.7
2019-03-23T16:12:45.169Z,41.8
2019-03-23T16:13:57.357Z,41.9
2019-03-23T16:15:09.551Z,42
2019-03-23T16:16:21.742Z,42
2019-03-23T16:17:33.935Z,42.1
2019-03-23T16:18:46.129Z,42.1
2019-03-23T16:19:58.032Z,42.2
2019-03-23T16:21:10.523Z,42.3
2019-03-23T16:22:22.742Z,42.4
2019-03-23T16:23:34.907Z,42.4
2019-03-23T16:24:47.102Z,42.5
2019-03-23T16:25:59.289Z,42.5
2019-03-23T16:27:11.494Z,42.5
2019-03-23T16:28:23.682Z,42.5
2019-03-23T16:29:35.869Z,42.5
2019-03-23T16:30:48.087Z,42.6
2019-03-23T16:32:00.263Z,42.6
2019-03-23T16:33:12.454Z,42.8
2019-03-23T16:34:24.645Z,42.8
2019-03-23T16:35:36.843Z,42.8
2019-03-23T16:36:49.029Z,42.8
2019-03-23T16:38:01.227Z,42.9
2019-03-23T16:39:13.423Z,42.9
2019-03-23T16:40:25.616Z,42.9
2019-03-23T16:41:37.008Z,43
2019-03-23T16:42:50.003Z,43
2019-03-23T16:44:02.198Z,43
2019-03-23T16:45:14.385Z,43.1
2019-03-23T16:46:26.588Z,43.1
2019-03-23T16:48:50.974Z,43.1
2019-03-23T16:50:03.016Z,43.2
2019-03-23T16:51:15.360Z,43.2